createdAt,value
2018-08-22T04:00:35.623Z,985.00
2018-08-22T04:01:35.561Z,984.95
2018-08-22T04:02:35.564Z,984.94
2018-08-22T04:03:35.536Z,984.87
2018-08-22T04:04:35.519Z,984.93
2018-08-22T04:05:35.527Z,984.91
2018-08-22T04:06:35.512Z,984.91
2018-08-22T04:07:35.494Z,984.93
2018-08-22T04:08:35.477Z,984.95
2018-08-22T04:09:35.472Z,984.94
2018-08-22T04:10:35.453Z,984.97
2018-08-22T04:11:35.455Z,984.99
2018-08-22T04:12:35.450Z,984.95
2018-08-22T04:13:35.419Z,984.97
2018-08-22T04:14:35.407Z,984.96
2018-08-22T04:15:35.396Z,984.96
2018-08-22T04:16:35.399Z,984.98
2018-08-22T04:17:35.372Z,984.98
2018-08-22T04:18:35.362Z,985.02
2018-08-22T04:19:35.351Z,984.98
2018-08-22T04:20:35.340Z,985.04
2018-08-22T04:21:35.341Z,985.00
2018-08-22T04:22:35.318Z,985.04
2018-08-22T04:23:35.302Z,985.04
2018-08-22T04:24:35.292Z,985.04
2018-08-22T04:25:35.286Z,985.07
2018-08-22T04:26:35.299Z,985.15
2018-08-22T04:27:35.261Z,985.08
2018-08-22T04:28:35.254Z,985.08
2018-08-22T04:29:35.251Z,985.04
2018-08-22T04:30:35.236Z,985.02
2018-08-22T04:31:35.252Z,985.07
2018-08-22T04:32:35.211Z,985.03
2018-08-22T04:33:35.207Z,985.00
2018-08-22T04:34:35.187Z,985.05
2018-08-22T04:35:35.180Z,985.10
2018-08-22T04:36:35.183Z,985.07
2018-08-22T04:37:35.152Z,985.13
2018-08-22T04:38:35.147Z,985.11
2018-08-22T04:39:35.131Z,985.09
2018-08-22T04:40:35.121Z,985.16
2018-08-22T04:41:35.129Z,985.16
2018-08-22T04:42:35.120Z,985.12
2018-08-22T04:43:35.085Z,985.12
2018-08-22T04:44:35.080Z,985.10
2018-08-22T04:45:35.073Z,985.08
2018-08-22T04:46:35.066Z,985.08
2018-08-22T04:47:35.049Z,985.11
2018-08-22T04:48:35.031Z,985.14
2018-08-22T04:49:35.029Z,985.13
2018-08-22T04:50:35.017Z,985.08
2018-08-22T04:51:35.021Z,985.11
2018-08-22T04:52:34.987Z,985.06
2018-08-22T04:53:34.977Z,985.05
2018-08-22T04:54:34.968Z,985.08
2018-08-22T04:55:34.958Z,985.05
2018-08-22T04:56:34.963Z,985.09
2018-08-22T04:57:34.920Z,985.04
2018-08-22T04:58:34.912Z,985.09
2018-08-22T04:59:34.906Z,985.03
2018-08-22T05:00:34.906Z,985.06
2018-08-22T05:01:34.896Z,985.06
2018-08-22T05:02:34.891Z,985.12
2018-08-22T05:03:34.855Z,985.12
2018-08-22T05:04:34.867Z,985.08
2018-08-22T05:05:34.848Z,985.12
2018-08-22T05:06:34.844Z,985.09
2018-08-22T05:07:34.819Z,985.08
2018-08-22T05:08:34.831Z,985.12
2018-08-22T05:09:34.804Z,985.04
2018-08-22T05:10:34.784Z,985.01
2018-08-22T05:11:34.794Z,985.01
2018-08-22T05:12:34.757Z,985.02
2018-08-22T05:13:34.749Z,984.99
2018-08-22T05:14:34.736Z,984.98
2018-08-22T05:15:34.729Z,984.98
2018-08-22T05:16:34.726Z,984.97
2018-08-22T05:17:34.700Z,984.99
2018-08-22T05:18:34.692Z,985.04
2018-08-22T05:19:34.677Z,985.01
2018-08-22T05:20:34.677Z,984.98
2018-08-22T05:21:34.690Z,984.96
2018-08-22T05:22:34.643Z,984.98
2018-08-22T05:23:34.633Z,984.98
2018-08-22T05:24:34.620Z,984.95
2018-08-22T05:25:34.608Z,984.94
2018-08-22T05:26:34.609Z,984.92
2018-08-22T05:27:34.585Z,984.97
2018-08-22T05:28:34.585Z,984.96
2018-08-22T05:29:34.564Z,984.91
2018-08-22T05:30:34.550Z,984.92
2018-08-22T05:31:34.557Z,984.93
2018-08-22T05:32:34.528Z,984.91
2018-08-22T05:33:34.513Z,984.93
2018-08-22T05:34:34.512Z,984.88
2018-08-22T05:35:34.509Z,984.92
2018-08-22T05:36:34.493Z,984.87
2018-08-22T05:37:34.482Z,984.85
2018-08-22T05:38:34.458Z,984.82
2018-08-22T05:39:34.455Z,984.85
2018-08-22T05:40:34.472Z,984.84
2018-08-22T05:41:34.436Z,984.88
2018-08-22T05:42:34.413Z,984.87
2018-08-22T05:43:34.401Z,984.89
2018-08-22T05:44:34.402Z,984.88
2018-08-22T05:45:34.378Z,984.86
2018-08-22T05:46:34.383Z,984.88
2018-08-22T05:47:34.356Z,984.85
2018-08-22T05:48:34.345Z,984.86
2018-08-22T05:49:34.339Z,984.83
2018-08-22T05:50:34.324Z,984.89
2018-08-22T05:51:34.325Z,984.88
2018-08-22T05:52:34.301Z,984.89
2018-08-22T05:53:34.291Z,984.90
2018-08-22T05:54:34.284Z,984.92
2018-08-22T05:55:34.269Z,984.86
2018-08-22T05:56:34.269Z,984.88
2018-08-22T05:57:34.292Z,984.94
2018-08-22T05:58:34.240Z,984.91
2018-08-22T05:59:34.221Z,984.93
2018-08-22T06:00:34.220Z,984.88
2018-08-22T06:01:34.215Z,984.93
2018-08-22T06:02:34.188Z,984.91
2018-08-22T06:03:34.177Z,984.89
2018-08-22T06:04:34.165Z,984.88
2018-08-22T06:05:34.154Z,984.90
2018-08-22T06:06:34.257Z,984.87
2018-08-22T06:07:34.132Z,984.86
2018-08-22T06:08:34.152Z,984.89
2018-08-22T06:09:34.112Z,984.85
2018-08-22T06:10:34.104Z,984.89
2018-08-22T06:11:34.085Z,984.87
2018-08-22T06:12:34.106Z,984.77
2018-08-22T06:13:34.064Z,984.84
2018-08-22T06:14:34.053Z,984.78
2018-08-22T06:15:34.047Z,984.78
2018-08-22T06:16:34.033Z,984.82
2018-08-22T06:17:34.033Z,984.79
2018-08-22T06:18:34.007Z,984.81
2018-08-22T06:19:34.003Z,984.79
2018-08-22T06:20:33.985Z,984.83
2018-08-22T06:21:33.973Z,984.84
2018-08-22T06:22:33.978Z,984.81
2018-08-22T06:23:33.953Z,984.81
2018-08-22T06:24:33.961Z,984.83
2018-08-22T06:25:34.011Z,984.81
2018-08-22T06:26:33.939Z,984.82
2018-08-22T06:27:33.922Z,984.75
2018-08-22T06:28:33.900Z,984.77
2018-08-22T06:29:33.885Z,984.78
2018-08-22T06:30:33.875Z,984.82
2018-08-22T06:31:33.866Z,984.80
2018-08-22T06:32:33.868Z,984.80
2018-08-22T06:33:33.839Z,984.78
2018-08-22T06:34:33.836Z,984.81
2018-08-22T06:35:33.818Z,984.82
2018-08-22T06:36:33.807Z,984.86
2018-08-22T06:37:33.812Z,984.85
2018-08-22T06:38:33.786Z,984.87
2018-08-22T06:39:33.773Z,984.87
2018-08-22T06:40:33.764Z,984.87
2018-08-22T06:41:33.755Z,984.77
2018-08-22T06:42:33.756Z,984.80
2018-08-22T06:43:33.729Z,984.81
2018-08-22T06:44:33.716Z,984.80
2018-08-22T06:45:33.705Z,984.79
2018-08-22T06:46:33.696Z,984.78
2018-08-22T06:47:33.701Z,984.80
2018-08-22T06:48:33.674Z,984.79
2018-08-22T06:49:33.674Z,984.77
2018-08-22T06:50:33.648Z,984.82
2018-08-22T06:51:33.642Z,984.79
2018-08-22T06:52:33.661Z,984.81
2018-08-22T06:53:33.619Z,984.76
2018-08-22T06:54:33.610Z,984.78
2018-08-22T06:55:33.594Z,984.81
2018-08-22T06:56:33.585Z,984.81
2018-08-22T06:57:33.587Z,984.82
2018-08-22T06:58:33.569Z,984.74
2018-08-22T06:59:33.549Z,984.74
2018-08-22T07:00:33.538Z,984.73
2018-08-22T07:01:33.526Z,984.72
2018-08-22T07:02:33.530Z,984.74
2018-08-22T07:03:33.503Z,984.78
2018-08-22T07:04:33.500Z,984.73
2018-08-22T07:05:33.483Z,984.73
2018-08-22T07:06:33.469Z,984.71
2018-08-22T07:07:33.471Z,984.70
2018-08-22T07:08:33.452Z,984.66
2018-08-22T07:09:33.437Z,984.69
2018-08-22T07:10:33.425Z,984.67
2018-08-22T07:11:33.417Z,984.67
2018-08-22T07:12:33.414Z,984.66
2018-08-22T07:13:33.390Z,984.65
2018-08-22T07:14:33.380Z,984.61
2018-08-22T07:15:33.371Z,984.64
2018-08-22T07:16:33.357Z,984.58
2018-08-22T07:17:33.361Z,984.62
2018-08-22T07:18:33.338Z,984.53
2018-08-22T07:19:33.324Z,984.57
2018-08-22T07:20:33.315Z,984.55
2018-08-22T07:21:33.304Z,984.54
2018-08-22T07:22:33.302Z,984.48
2018-08-22T07:23:33.287Z,984.56
2018-08-22T07:24:33.307Z,984.53
2018-08-22T07:25:33.420Z,984.55
2018-08-22T07:26:33.248Z,984.53
2018-08-22T07:27:33.254Z,984.52
2018-08-22T07:28:33.226Z,984.51
2018-08-22T07:29:33.215Z,984.48
2018-08-22T07:30:33.204Z,984.44
2018-08-22T07:31:33.195Z,984.43
2018-08-22T07:32:33.200Z,984.42
2018-08-22T07:33:33.176Z,984.37
2018-08-22T07:34:33.157Z,984.37
2018-08-22T07:35:33.147Z,984.39
2018-08-22T07:36:33.135Z,984.36
2018-08-22T07:37:33.138Z,984.38
2018-08-22T07:38:33.113Z,984.31
2018-08-22T07:39:33.101Z,984.35
2018-08-22T07:40:33.094Z,984.36
2018-08-22T07:41:33.077Z,984.36
2018-08-22T07:42:33.080Z,984.34
2018-08-22T07:43:33.058Z,984.40
2018-08-22T07:44:33.047Z,984.39
2018-08-22T07:45:33.034Z,984.40
2018-08-22T07:46:33.023Z,984.37
2018-08-22T07:47:33.023Z,984.37
2018-08-22T07:48:33.063Z,984.39
2018-08-22T07:49:33.016Z,984.36
2018-08-22T07:50:32.978Z,984.37
2018-08-22T07:51:32.967Z,984.38
2018-08-22T07:52:32.974Z,984.38
2018-08-22T07:53:32.945Z,984.36
2018-08-22T07:54:32.939Z,984.39
2018-08-22T07:55:32.921Z,984.40
2018-08-22T07:56:32.931Z,984.34
2018-08-22T07:57:32.912Z,984.35
2018-08-22T07:58:32.888Z,984.33
2018-08-22T07:59:32.882Z,984.32
2018-08-22T08:00:32.867Z,984.28
2018-08-22T08:01:32.856Z,984.30
2018-08-22T08:02:32.857Z,984.30
2018-08-22T08:03:32.834Z,984.30
2018-08-22T08:04:32.827Z,984.27
2018-08-22T08:05:32.841Z,984.24
2018-08-22T08:06:32.816Z,984.25
2018-08-22T08:07:32.801Z,984.25
2018-08-22T08:08:32.813Z,984.26
2018-08-22T08:09:32.768Z,984.25
2018-08-22T08:10:32.753Z,984.30
2018-08-22T08:11:32.745Z,984.24
2018-08-22T08:12:32.738Z,984.26
2018-08-22T08:13:32.735Z,984.28
2018-08-22T08:14:32.714Z,984.25
2018-08-22T08:15:32.702Z,984.25
2018-08-22T08:16:32.694Z,984.26
2018-08-22T08:17:32.678Z,984.25
2018-08-22T08:18:32.721Z,984.27
2018-08-22T08:19:32.656Z,984.22
2018-08-22T08:20:32.648Z,984.22
2018-08-22T08:21:32.637Z,984.16
2018-08-22T08:22:32.627Z,984.15
2018-08-22T08:23:32.627Z,984.14
2018-08-22T08:24:32.602Z,984.18
2018-08-22T08:25:32.605Z,984.12
2018-08-22T08:26:32.604Z,984.13
2018-08-22T08:27:32.566Z,984.13
2018-08-22T08:28:32.577Z,984.11
2018-08-22T08:29:32.559Z,984.14
2018-08-22T08:30:32.567Z,984.14
2018-08-22T08:31:32.532Z,984.13
2018-08-22T08:32:32.514Z,984.11
2018-08-22T08:33:32.533Z,984.15
2018-08-22T08:34:32.487Z,984.09
2018-08-22T08:35:32.488Z,984.11
2018-08-22T08:36:32.470Z,984.07
2018-08-22T08:37:32.457Z,984.05
2018-08-22T08:38:32.476Z,984.09
2018-08-22T08:39:32.433Z,984.05
2018-08-22T08:40:32.424Z,984.04
2018-08-22T08:41:32.500Z,984.06
2018-08-22T08:42:32.402Z,984.01
2018-08-22T08:43:32.405Z,983.99
2018-08-22T08:44:32.379Z,984.01
2018-08-22T08:45:32.367Z,984.03
2018-08-22T08:46:32.673Z,983.96
2018-08-22T08:47:32.347Z,983.98
2018-08-22T08:48:32.350Z,983.91
2018-08-22T08:49:32.331Z,983.93
2018-08-22T08:50:32.310Z,983.92
2018-08-22T08:51:32.412Z,983.89
2018-08-22T08:52:32.320Z,983.89
2018-08-22T08:53:32.289Z,983.90
2018-08-22T08:54:32.399Z,983.88
2018-08-22T08:55:32.254Z,983.90
2018-08-22T08:56:32.241Z,983.85
2018-08-22T08:57:32.240Z,983.82
2018-08-22T08:58:32.233Z,983.82
2018-08-22T08:59:32.210Z,983.80
2018-08-22T09:00:32.201Z,983.81
2018-08-22T09:01:32.236Z,983.81
2018-08-22T09:02:32.177Z,983.78
2018-08-22T09:03:32.197Z,983.80
2018-08-22T09:04:32.413Z,983.76
2018-08-22T09:05:32.146Z,983.78
2018-08-22T09:06:32.207Z,983.77
2018-08-22T09:07:32.130Z,983.78
2018-08-22T09:08:32.122Z,983.77
2018-08-22T09:09:32.104Z,983.74
2018-08-22T09:10:32.091Z,983.74
2018-08-22T09:11:32.079Z,983.74
2018-08-22T09:12:32.068Z,983.72
2018-08-22T09:13:32.066Z,983.71
2018-08-22T09:14:32.045Z,983.66
2018-08-22T09:15:32.083Z,983.62
2018-08-22T09:16:32.063Z,983.65
2018-08-22T09:17:32.011Z,983.60
2018-08-22T09:18:32.009Z,983.65
2018-08-22T09:19:31.993Z,983.60
2018-08-22T09:20:31.978Z,983.59
2018-08-22T09:21:32.030Z,983.58
2018-08-22T09:22:31.957Z,983.63
2018-08-22T09:23:31.954Z,983.57
2018-08-22T09:24:31.977Z,983.55
2018-08-22T09:25:31.924Z,983.58
2018-08-22T09:26:31.914Z,983.51
2018-08-22T09:27:31.899Z,983.52
2018-08-22T09:28:31.898Z,983.47
2018-08-22T09:29:31.919Z,983.55
2018-08-22T09:30:31.867Z,983.49
2018-08-22T09:31:31.875Z,983.51
2018-08-22T09:32:31.844Z,983.47
2018-08-22T09:33:31.860Z,983.45
2018-08-22T09:34:31.824Z,983.48
2018-08-22T09:35:31.850Z,983.48
2018-08-22T09:36:31.846Z,983.46
2018-08-22T09:37:31.790Z,983.45
2018-08-22T09:38:31.792Z,983.45
2018-08-22T09:39:31.863Z,983.42
2018-08-22T09:40:31.786Z,983.43
2018-08-22T09:41:31.747Z,983.41
2018-08-22T09:42:31.733Z,983.39
2018-08-22T09:43:31.735Z,983.45
2018-08-22T09:44:31.713Z,983.36
2018-08-22T09:45:31.701Z,983.32
2018-08-22T09:46:31.725Z,983.31
2018-08-22T09:47:31.708Z,983.31
2018-08-22T09:48:31.674Z,983.28
2018-08-22T09:49:31.657Z,983.29
2018-08-22T09:50:31.645Z,983.27
2018-08-22T09:51:31.634Z,983.25
2018-08-22T09:52:31.624Z,983.21
2018-08-22T09:53:31.622Z,983.19
2018-08-22T09:54:31.631Z,983.20
2018-08-22T09:55:31.591Z,983.22
2018-08-22T09:56:31.580Z,983.22
2018-08-22T09:57:31.694Z,983.17
2018-08-22T09:58:31.592Z,983.19
2018-08-22T09:59:31.545Z,983.19
2018-08-22T10:00:31.538Z,983.15
2018-08-22T10:01:31.541Z,983.13
2018-08-22T10:02:31.510Z,983.14
2018-08-22T10:03:31.512Z,983.09
2018-08-22T10:04:31.489Z,983.10
2018-08-22T10:05:31.477Z,983.06
2018-08-22T10:06:31.628Z,983.09
2018-08-22T10:07:31.585Z,983.03
2018-08-22T10:08:31.459Z,983.03
2018-08-22T10:09:31.444Z,982.95
2018-08-22T10:10:31.424Z,982.96
2018-08-22T10:11:31.411Z,982.99
2018-08-22T10:12:31.401Z,982.97
2018-08-22T10:13:31.390Z,982.97
2018-08-22T10:14:31.393Z,982.97
2018-08-22T10:15:31.368Z,982.97
2018-08-22T10:16:31.358Z,982.93
2018-08-22T10:17:31.345Z,982.94
2018-08-22T10:18:31.336Z,982.97
2018-08-22T10:19:31.359Z,982.93
2018-08-22T10:20:31.313Z,982.93
2018-08-22T10:21:31.306Z,982.93
2018-08-22T10:22:31.294Z,982.91
2018-08-22T10:23:31.287Z,982.91
2018-08-22T10:24:31.286Z,982.81
2018-08-22T10:25:31.259Z,982.88
2018-08-22T10:26:31.265Z,982.87
2018-08-22T10:27:31.240Z,982.81
2018-08-22T10:28:31.229Z,982.81
2018-08-22T10:29:31.231Z,982.74
2018-08-22T10:30:31.207Z,982.78
2018-08-22T10:31:31.198Z,982.73
2018-08-22T10:32:31.227Z,982.69
2018-08-22T10:33:31.169Z,982.71
2018-08-22T10:34:31.175Z,982.72
2018-08-22T10:35:31.148Z,982.69
2018-08-22T10:36:31.151Z,982.70
2018-08-22T10:37:31.128Z,982.68
2018-08-22T10:38:31.139Z,982.69
2018-08-22T10:39:31.217Z,982.70
2018-08-22T10:40:31.100Z,982.70
2018-08-22T10:41:31.081Z,982.70
2018-08-22T10:42:31.080Z,982.67
2018-08-22T10:43:31.062Z,982.72
2018-08-22T10:44:31.127Z,982.70
2018-08-22T10:45:31.038Z,982.68
2018-08-22T10:46:31.031Z,982.68
2018-08-22T10:47:31.016Z,982.68
2018-08-22T10:48:31.004Z,982.70
2018-08-22T10:49:31.004Z,982.66
2018-08-22T10:50:31.047Z,982.66
2018-08-22T10:51:30.975Z,982.71
2018-08-22T10:52:30.961Z,982.66
2018-08-22T10:53:30.950Z,982.68
2018-08-22T10:54:30.951Z,982.68
2018-08-22T10:55:30.927Z,982.64
2018-08-22T10:56:30.918Z,982.62
2018-08-22T10:57:30.907Z,982.64
2018-08-22T10:58:30.896Z,982.60
2018-08-22T10:59:30.898Z,982.60
2018-08-22T11:00:30.872Z,982.61
2018-08-22T11:01:30.863Z,982.62
2018-08-22T11:02:30.858Z,982.57
2018-08-22T11:03:30.842Z,982.62
2018-08-22T11:04:30.840Z,982.57
2018-08-22T11:05:30.817Z,982.53
2018-08-22T11:06:30.808Z,982.56
2018-08-22T11:07:30.796Z,982.57
2018-08-22T11:08:30.787Z,982.60
2018-08-22T11:09:30.783Z,982.58
2018-08-22T11:10:30.761Z,982.54
2018-08-22T11:11:30.752Z,982.53
2018-08-22T11:12:30.740Z,982.51
2018-08-22T11:13:30.729Z,982.53
2018-08-22T11:14:30.729Z,982.52
2018-08-22T11:15:30.709Z,982.51
2018-08-22T11:16:30.704Z,982.51
2018-08-22T11:17:30.687Z,982.53
2018-08-22T11:18:30.674Z,982.50
2018-08-22T11:19:30.678Z,982.43
2018-08-22T11:20:30.656Z,982.45
2018-08-22T11:21:30.648Z,982.41
2018-08-22T11:22:30.723Z,982.38
2018-08-22T11:23:30.621Z,982.38
2018-08-22T11:24:30.625Z,982.36
2018-08-22T11:25:30.596Z,982.45
2018-08-22T11:26:30.584Z,982.41
2018-08-22T11:27:30.576Z,982.36
2018-08-22T11:28:30.568Z,982.37
2018-08-22T11:29:30.611Z,982.35
2018-08-22T11:30:30.543Z,982.34
2018-08-22T11:31:30.544Z,982.26
2018-08-22T11:32:30.520Z,982.27
2018-08-22T11:33:30.513Z,982.25
2018-08-22T11:34:30.564Z,982.30
2018-08-22T11:35:30.489Z,982.27
2018-08-22T11:36:30.500Z,982.31
2018-08-22T11:37:30.465Z,982.26
2018-08-22T11:38:30.455Z,982.25
2018-08-22T11:39:30.453Z,982.22
2018-08-22T11:40:30.433Z,982.25
2018-08-22T11:41:30.420Z,982.20
2018-08-22T11:42:30.415Z,982.24
2018-08-22T11:43:30.400Z,982.21
2018-08-22T11:44:30.404Z,982.23
2018-08-22T11:45:30.380Z,982.18
2018-08-22T11:46:30.367Z,982.19
2018-08-22T11:47:30.356Z,982.23
2018-08-22T11:48:30.346Z,982.24
2018-08-22T11:49:30.347Z,982.22
2018-08-22T11:50:30.328Z,982.24
2018-08-22T11:51:30.312Z,982.22
2018-08-22T11:52:30.303Z,982.24
2018-08-22T11:53:30.289Z,982.23
2018-08-22T11:54:30.290Z,982.22
2018-08-22T11:55:30.271Z,982.21
2018-08-22T11:56:30.257Z,982.20
2018-08-22T11:57:30.246Z,982.17
2018-08-22T11:58:30.235Z,982.15
2018-08-22T11:59:30.238Z,982.16
2018-08-22T12:00:30.214Z,982.14
2018-08-22T12:01:30.206Z,982.16
2018-08-22T12:02:30.197Z,982.10
2018-08-22T12:03:30.185Z,982.09
2018-08-22T12:04:30.187Z,982.06
2018-08-22T12:05:30.157Z,982.10
2018-08-22T12:06:30.150Z,982.08
2018-08-22T12:07:30.139Z,982.05
2018-08-22T12:08:30.125Z,982.03
2018-08-22T12:09:30.130Z,982.04
2018-08-22T12:10:30.110Z,982.05
2018-08-22T12:11:30.093Z,982.05
2018-08-22T12:12:30.083Z,982.03
2018-08-22T12:13:30.071Z,982.04
2018-08-22T12:14:30.084Z,982.05
2018-08-22T12:15:30.051Z,982.04
2018-08-22T12:16:30.039Z,982.05
2018-08-22T12:17:30.033Z,982.05
2018-08-22T12:18:30.015Z,982.10
2018-08-22T12:19:30.010Z,982.04
2018-08-22T12:20:30.008Z,982.06
2018-08-22T12:21:29.986Z,982.03
2018-08-22T12:22:29.971Z,982.08
2018-08-22T12:23:30.055Z,982.07
2018-08-22T12:24:29.950Z,982.06
2018-08-22T12:25:29.954Z,982.06
2018-08-22T12:26:29.928Z,982.06
2018-08-22T12:27:29.918Z,982.11
2018-08-22T12:28:29.910Z,982.08
2018-08-22T12:29:29.900Z,982.05
2018-08-22T12:30:29.895Z,982.05
2018-08-22T12:31:29.873Z,982.04
2018-08-22T12:32:29.865Z,982.03
2018-08-22T12:33:29.852Z,982.04
2018-08-22T12:34:29.840Z,982.02
2018-08-22T12:35:29.845Z,981.99
2018-08-22T12:36:29.823Z,982.00
2018-08-22T12:37:29.809Z,981.99
2018-08-22T12:38:29.796Z,981.95
2018-08-22T12:39:29.790Z,981.94
2018-08-22T12:40:29.786Z,981.91
2018-08-22T12:41:29.768Z,981.92
2018-08-22T12:42:29.754Z,981.91
2018-08-22T12:43:29.742Z,981.88
2018-08-22T12:44:29.734Z,981.89
2018-08-22T12:45:29.734Z,981.87
2018-08-22T12:46:29.708Z,981.89
2018-08-22T12:47:29.702Z,981.83
2018-08-22T12:48:29.689Z,981.85
2018-08-22T12:49:29.680Z,981.85
2018-08-22T12:50:29.741Z,981.78
2018-08-22T12:51:29.652Z,981.75
2018-08-22T12:52:29.641Z,981.74
2018-08-22T12:53:29.661Z,981.75
2018-08-22T12:54:29.622Z,981.75
2018-08-22T12:55:29.621Z,981.74
2018-08-22T12:56:29.600Z,981.72
2018-08-22T12:57:29.592Z,981.70
2018-08-22T12:58:29.577Z,981.72
2018-08-22T12:59:29.571Z,981.63
2018-08-22T13:00:29.570Z,981.65
2018-08-22T13:01:29.551Z,981.71
2018-08-22T13:02:29.535Z,981.61
2018-08-22T13:03:29.525Z,981.61
2018-08-22T13:04:29.559Z,981.63
2018-08-22T13:05:29.517Z,981.64
2018-08-22T13:06:29.489Z,981.60
2018-08-22T13:07:29.479Z,981.63
2018-08-22T13:08:29.467Z,981.60
2018-08-22T13:09:29.455Z,981.58
2018-08-22T13:10:29.457Z,981.57
2018-08-22T13:11:29.471Z,981.51
2018-08-22T13:12:29.424Z,981.56
2018-08-22T13:13:29.413Z,981.48
2018-08-22T13:14:29.401Z,981.52
2018-08-22T13:15:29.407Z,981.51
2018-08-22T13:16:29.382Z,981.50
2018-08-22T13:17:29.371Z,981.48
2018-08-22T13:18:29.359Z,981.48
2018-08-22T13:19:29.352Z,981.44
2018-08-22T13:20:29.351Z,981.42
2018-08-22T13:21:29.323Z,981.40
2018-08-22T13:22:29.313Z,981.41
2018-08-22T13:23:29.306Z,981.41
2018-08-22T13:24:29.292Z,981.38
2018-08-22T13:25:29.321Z,981.36
2018-08-22T13:26:29.272Z,981.37
2018-08-22T13:27:29.260Z,981.37
2018-08-22T13:28:29.253Z,981.36
2018-08-22T13:29:29.236Z,981.32
2018-08-22T13:30:29.309Z,981.33
2018-08-22T13:31:29.228Z,981.36
2018-08-22T13:32:29.209Z,981.33
2018-08-22T13:33:29.203Z,981.33
2018-08-22T13:34:29.182Z,981.32
2018-08-22T13:35:29.175Z,981.30
2018-08-22T13:36:29.199Z,981.25
2018-08-22T13:37:29.151Z,981.30
2018-08-22T13:38:29.137Z,981.28
2018-08-22T13:39:29.127Z,981.28
2018-08-22T13:40:29.127Z,981.29
2018-08-22T13:41:29.127Z,981.27
2018-08-22T13:42:29.093Z,981.26
2018-08-22T13:43:29.092Z,981.21
2018-08-22T13:44:29.078Z,981.25
2018-08-22T13:45:29.063Z,981.23
2018-08-22T13:46:29.060Z,981.24
2018-08-22T13:47:29.038Z,981.22
2018-08-22T13:48:29.037Z,981.19
2018-08-22T13:49:29.017Z,981.21
2018-08-22T13:50:29.011Z,981.24
2018-08-22T13:51:29.007Z,981.23
2018-08-22T13:52:28.992Z,981.19
2018-08-22T13:53:28.975Z,981.23
2018-08-22T13:54:28.969Z,981.21
2018-08-22T13:55:28.952Z,981.19
2018-08-22T13:56:29.023Z,981.19
2018-08-22T13:57:28.931Z,981.22
2018-08-22T13:58:28.918Z,981.20
2018-08-22T13:59:28.906Z,981.18
2018-08-22T14:00:28.896Z,981.24
2018-08-22T14:01:29.041Z,981.18
2018-08-22T14:02:28.877Z,981.15
2018-08-22T14:03:28.863Z,981.10
2018-08-22T14:04:28.853Z,981.14
2018-08-22T14:05:28.842Z,981.13
2018-08-22T14:06:28.853Z,981.14
2018-08-22T14:07:28.820Z,981.09
2018-08-22T14:08:28.812Z,981.10
2018-08-22T14:09:28.803Z,981.10
2018-08-22T14:10:28.789Z,981.11
2018-08-22T14:11:28.791Z,981.06
2018-08-22T14:12:28.765Z,981.10
2018-08-22T14:13:28.754Z,981.08
2018-08-22T14:14:28.744Z,981.08
2018-08-22T14:15:28.733Z,981.06
2018-08-22T14:16:28.743Z,981.07
2018-08-22T14:17:28.709Z,981.06
2018-08-22T14:18:28.702Z,981.09
2018-08-22T14:19:28.688Z,981.10
2018-08-22T14:20:28.682Z,981.07
2018-08-22T14:21:28.678Z,981.14
2018-08-22T14:22:28.746Z,981.06
2018-08-22T14:23:28.644Z,981.04
2018-08-22T14:24:28.634Z,981.13
2018-08-22T14:25:28.624Z,981.06
2018-08-22T14:26:28.610Z,981.08
2018-08-22T14:27:28.619Z,981.05
2018-08-22T14:28:28.593Z,981.05
2018-08-22T14:29:28.580Z,980.99
2018-08-22T14:30:28.576Z,981.08
2018-08-22T14:31:28.573Z,981.04
2018-08-22T14:32:28.558Z,980.98
2018-08-22T14:33:28.548Z,981.02
2018-08-22T14:34:28.524Z,980.99
2018-08-22T14:35:28.514Z,980.98
2018-08-22T14:36:28.505Z,981.03
2018-08-22T14:37:28.503Z,980.98
2018-08-22T14:38:28.489Z,981.03
2018-08-22T14:39:28.572Z,981.00
2018-08-22T14:40:28.457Z,981.02
2018-08-22T14:41:28.450Z,981.00
2018-08-22T14:42:28.452Z,980.98
2018-08-22T14:43:28.425Z,980.97
2018-08-22T14:44:28.418Z,980.92
2018-08-22T14:45:28.402Z,980.92
2018-08-22T14:46:28.393Z,980.97
2018-08-22T14:47:28.401Z,980.95
2018-08-22T14:48:28.372Z,980.89
2018-08-22T14:49:28.360Z,980.91
2018-08-22T14:50:28.351Z,980.89
2018-08-22T14:51:28.340Z,980.85
2018-08-22T14:52:28.341Z,980.88
2018-08-22T14:53:28.324Z,980.85
2018-08-22T14:54:28.308Z,980.81
2018-08-22T14:55:28.305Z,980.81
2018-08-22T14:56:28.451Z,980.85
2018-08-22T14:57:28.284Z,980.83
2018-08-22T14:58:28.262Z,980.81
2018-08-22T14:59:28.252Z,980.84
2018-08-22T15:00:28.243Z,980.81
2018-08-22T15:01:28.228Z,980.81
2018-08-22T15:02:28.326Z,980.83
2018-08-22T15:03:28.387Z,980.83
2018-08-22T15:04:28.194Z,980.80
2018-08-22T15:05:28.205Z,980.79
2018-08-22T15:06:28.177Z,980.75
2018-08-22T15:07:28.180Z,980.74
2018-08-22T15:08:28.154Z,980.78
2018-08-22T15:09:28.138Z,980.80
2018-08-22T15:10:28.145Z,980.80
2018-08-22T15:11:28.117Z,980.79
2018-08-22T15:12:28.120Z,980.76
2018-08-22T15:13:28.100Z,980.77
2018-08-22T15:14:28.088Z,980.74
2018-08-22T15:15:28.074Z,980.75
2018-08-22T15:16:28.064Z,980.71
2018-08-22T15:17:28.068Z,980.69
2018-08-22T15:18:28.043Z,980.64
2018-08-22T15:19:28.028Z,980.65
2018-08-22T15:20:28.025Z,980.65
2018-08-22T15:21:28.010Z,980.64
2018-08-22T15:22:28.014Z,980.67
2018-08-22T15:23:27.986Z,980.66
2018-08-22T15:24:27.975Z,980.64
2018-08-22T15:25:27.962Z,980.67
2018-08-22T15:26:27.990Z,980.63
2018-08-22T15:27:27.984Z,980.62
2018-08-22T15:28:27.930Z,980.60
2018-08-22T15:29:27.919Z,980.61
2018-08-22T15:30:27.908Z,980.55
2018-08-22T15:31:27.897Z,980.54
2018-08-22T15:32:27.900Z,980.54
2018-08-22T15:33:27.880Z,980.49
2018-08-22T15:34:27.867Z,980.49
2018-08-22T15:35:27.856Z,980.49
2018-08-22T15:36:27.868Z,980.47
2018-08-22T15:37:27.847Z,980.49
2018-08-22T15:38:27.820Z,980.48
2018-08-22T15:39:27.817Z,980.44
2018-08-22T15:40:27.803Z,980.43
2018-08-22T15:41:27.789Z,980.42
2018-08-22T15:42:27.793Z,980.43
2018-08-22T15:43:27.765Z,980.40
2018-08-22T15:44:27.757Z,980.42
2018-08-22T15:45:27.746Z,980.39
2018-08-22T15:46:27.738Z,980.39
2018-08-22T15:47:27.834Z,980.43
2018-08-22T15:48:27.714Z,980.44
2018-08-22T15:49:27.720Z,980.40
2018-08-22T15:50:27.693Z,980.38
2018-08-22T15:51:27.688Z,980.43
2018-08-22T15:52:27.678Z,980.40
2018-08-22T15:53:27.656Z,980.39
2018-08-22T15:54:27.648Z,980.35
2018-08-22T15:55:27.634Z,980.37
2018-08-22T15:56:27.629Z,980.35
2018-08-22T15:57:27.624Z,980.36
2018-08-22T15:58:27.602Z,980.32
2018-08-22T15:59:27.593Z,980.30
2018-08-22T16:00:27.581Z,980.28
2018-08-22T16:01:27.570Z,980.22
2018-08-22T16:02:27.568Z,980.27
2018-08-22T16:03:27.548Z,980.27
2018-08-22T16:04:27.537Z,980.26
2018-08-22T16:05:27.533Z,980.26
2018-08-22T16:06:27.513Z,980.27
2018-08-22T16:07:27.515Z,980.25
2018-08-22T16:08:27.494Z,980.25
2018-08-22T16:09:27.483Z,980.20
2018-08-22T16:10:27.469Z,980.26
2018-08-22T16:11:27.461Z,980.25
2018-08-22T16:12:27.459Z,980.21
2018-08-22T16:13:27.436Z,980.21
2018-08-22T16:14:27.454Z,980.20
2018-08-22T16:15:27.417Z,980.18
2018-08-22T16:16:27.408Z,980.22
2018-08-22T16:17:27.408Z,980.19
2018-08-22T16:18:27.389Z,980.15
2018-08-22T16:19:27.375Z,980.14
2018-08-22T16:20:27.362Z,980.12
2018-08-22T16:21:27.349Z,980.13
2018-08-22T16:22:27.360Z,980.18
2018-08-22T16:23:27.328Z,980.11
2018-08-22T16:24:27.317Z,980.14
2018-08-22T16:25:27.305Z,980.11
2018-08-22T16:26:27.294Z,980.12
2018-08-22T16:27:27.307Z,980.09
2018-08-22T16:28:27.355Z,980.09